Time;durP1;ratioP1;P1;durP2;ratioP2;P2;SDS_P1;SDS_P2;PMS_P1;PMS_P2;Temp;Humidity;BMP_temperature;BMP_pressure;BME280_temperature;BME280_humidity;BME280_pressure;Samples;Min_cycle;Max_cycle;Signal;HPM_P1;HPM_P2
2024/01/22 00:00:05;;;;;;;43.35;30.88;;;;;;;-2.54;100.00;101403.09;5035416;28;20021;-80
2024/01/22 00:03:00;;;;;;;43.63;30.33;;;;;;;-2.54;100.00;101398.78;5050583;28;20046;-81
2024/01/22 00:05:39;;;;;;;42.42;29.88;;;;;;;-2.51;100.00;101403.03;5039034;28;20028;-80
2024/01/22 00:08:10;;;;;;;42.90;29.25;;;;;;;-2.49;100.00;101401.31;5054866;28;20043;-81
2024/01/22 00:10:35;;;;;;;39.88;29.13;;;;;;;-2.53;100.00;101399.59;5052211;28;20017;-81
2024/01/22 00:13:07;;;;;;;39.17;28.15;;;;;;;-2.59;100.00;101397.09;5049751;28;20029;-81
2024/01/22 00:15:32;;;;;;;40.63;29.73;;;;;;;-2.67;100.00;101394.59;5049963;28;20069;-81
2024/01/22 00:18:03;;;;;;;38.65;29.77;;;;;;;-2.79;100.00;101396.44;5051698;28;20045;-81
2024/01/22 00:20:29;;;;;;;37.15;27.90;;;;;;;-2.95;100.00;101391.41;5050891;28;20026;-80
2024/01/22 00:23:00;;;;;;;43.92;29.92;;;;;;;-2.79;100.00;101392.13;5053409;28;20026;-80
2024/01/22 00:25:46;;;;;;;42.00;28.13;;;;;;;-2.70;100.00;101386.00;5054075;28;20022;-80
2024/01/22 00:28:12;;;;;;;40.53;27.95;;;;;;;-2.68;100.00;101394.59;5052440;28;20052;-81
2024/01/22 00:30:58;;;;;;;44.42;29.60;;;;;;;-2.92;100.00;101388.78;5037045;28;20025;-79
2024/01/22 00:33:30;;;;;;;38.15;28.42;;;;;;;-2.85;100.00;101393.91;5074587;28;20013;-81
2024/01/22 00:35:56;;;;;;;41.03;28.50;;;;;;;-3.03;100.00;101392.34;5060298;28;20021;-80
2024/01/22 00:38:26;;;;;;;38.97;29.08;;;;;;;-2.89;100.00;101395.66;5055590;28;20040;-81
2024/01/22 00:40:58;;;;;;;41.63;28.30;;;;;;;-2.89;100.00;101393.91;5057951;28;20025;-82
2024/01/22 00:43:25;;;;;;;47.10;30.90;;;;;;;-3.22;100.00;101389.03;5036636;28;20009;-80
2024/01/22 00:45:54;;;;;;;40.10;29.45;;;;;;;-3.18;100.00;101388.13;5053441;28;20064;-80
2024/01/22 00:48:20;;;;;;;38.90;28.75;;;;;;;-3.09;100.00;101387.22;5053705;28;20025;-81
2024/01/22 00:50:49;;;;;;;38.05;28.75;;;;;;;-3.07;100.00;101388.94;5037310;28;20045;-80
2024/01/22 00:53:20;;;;;;;43.22;29.40;;;;;;;-3.08;100.00;101384.63;5053805;28;20021;-80
2024/01/22 00:55:45;;;;;;;44.08;29.80;;;;;;;-3.05;100.00;101384.59;5054210;28;20021;-81
2024/01/22 00:58:14;;;;;;;38.63;29.20;;;;;;;-3.08;100.00;101379.47;5055643;28;20055;-81
2024/01/22 01:00:39;;;;;;;41.33;28.88;;;;;;;-3.07;100.00;101370.84;5053661;28;20021;-82
2024/01/22 01:03:06;;;;;;;40.20;29.95;;;;;;;-3.05;100.00;101363.94;5050739;28;20017;-80
2024/01/22 01:05:35;;;;;;;41.88;29.98;;;;;;;-3.11;100.00;101366.56;5070480;28;20017;-80
2024/01/22 01:08:03;;;;;;;42.65;29.00;;;;;;;-3.16;100.00;101368.34;5052246;28;20028;-80
2024/01/22 01:10:30;;;;;;;42.40;29.63;;;;;;;-3.16;100.00;101363.16;5070464;28;20025;-81
2024/01/22 01:13:02;;;;;;;40.45;29.52;;;;;;;-3.15;100.00;101362.31;5060947;28;20015;-79
2024/01/22 01:15:27;;;;;;;42.50;30.35;;;;;;;-3.12;100.00;101371.78;5063901;28;20024;-80
2024/01/22 01:17:58;;;;;;;44.78;30.95;;;;;;;-3.12;100.00;101369.19;5036163;28;20017;-79
2024/01/22 01:20:44;;;;;;;41.30;30.25;;;;;;;-3.18;100.00;101377.81;5053622;28;20017;-80
2024/01/22 01:23:11;;;;;;;42.78;30.23;;;;;;;-3.48;100.00;101384.09;5049439;28;20044;-82
2024/01/22 01:25:39;;;;;;;45.10;31.40;;;;;;;-3.66;100.00;61586.06;5040295;28;20010;-81
2024/01/22 01:28:24;;;;;;;39.67;30.13;;;;;;;-144.47;100.00;61586.06;5049918;28;20097;-81
2024/01/22 01:30:51;;;;;;;42.50;30.50;;;;;;;-144.47;100.00;61586.06;5050726;28;20036;-81
2024/01/22 01:33:21;;;;;;;44.00;31.23;;;;;;;-144.47;100.00;61586.06;5059923;28;20060;-81
2024/01/22 01:35:46;;;;;;;48.85;33.72;;;;;;;-144.47;100.00;61586.06;5043748;28;20089;-81
2024/01/22 01:38:17;;;;;;;48.08;33.45;;;;;;;-144.47;100.00;61586.06;5053195;28;20032;-81
2024/01/22 01:40:42;;;;;;;;;;;;;;;-144.47;100.00;61586.06;5053672;28;20013;-79
2024/01/22 01:43:28;;;;;;;44.13;31.50;;;;;;;-144.47;100.00;61586.06;5053609;28;19905;-81
2024/01/22 01:45:54;;;;;;;44.03;32.47;;;;;;;-144.47;100.00;61586.06;5040686;28;20033;-80
2024/01/22 01:48:25;;;;;;;44.28;31.55;;;;;;;-144.47;100.00;61586.06;5053423;28;20021;-80
2024/01/22 01:50:50;;;;;;;44.22;30.67;;;;;;;-144.47;100.00;61586.06;5042609;28;20032;-80
2024/01/22 01:53:22;;;;;;;41.25;29.08;;;;;;;-144.47;100.00;61586.06;5047568;28;20014;-83
2024/01/22 01:55:51;;;;;;;40.28;28.10;;;;;;;-144.47;100.00;61586.06;5051603;28;20021;-80
2024/01/22 01:58:21;;;;;;;39.80;28.17;;;;;;;-144.47;100.00;61586.06;5050364;28;20033;-80
2024/01/22 02:00:56;;;;;;;37.75;27.95;;;;;;;-144.47;100.00;61586.06;5070437;28;20021;-79
2024/01/22 02:03:22;;;;;;;37.50;26.73;;;;;;;-144.47;100.00;61586.06;5038559;28;20013;-80
2024/01/22 02:05:51;;;;;;;42.70;27.85;;;;;;;-144.47;100.00;61586.06;5062935;28;20020;-80
2024/01/22 02:08:21;;;;;;;40.65;28.83;;;;;;;-144.47;100.00;61586.06;5044626;28;20051;-79
2024/01/22 02:10:48;;;;;;;42.47;28.52;;;;;;;-144.47;100.00;61586.06;5031432;28;20034;-80
2024/01/22 02:13:14;;;;;;;39.50;28.42;;;;;;;-144.47;100.00;61586.06;5049328;28;20010;-80
2024/01/22 02:15:46;;;;;;;38.25;27.85;;;;;;;-144.47;100.00;61586.06;5049282;28;20044;-81
2024/01/22 02:18:11;;;;;;;42.72;29.23;;;;;;;-144.47;100.00;61586.06;5052901;28;20020;-81
2024/01/22 02:21:05;;;;;;;38.67;28.55;;;;;;;-144.47;100.00;61586.06;5050535;28;20050;-80
2024/01/22 02:23:30;;;;;;;38.10;29.10;;;;;;;-144.47;100.00;61586.06;5051368;28;20081;-82
2024/01/22 02:26:01;;;;;;;38.55;28.55;;;;;;;-144.47;100.00;61586.06;5055360;28;20017;-81
2024/01/22 02:28:28;;;;;;;;;;;;;;;-144.47;100.00;61586.06;5041548;28;20048;-80
2024/01/22 02:30:57;;;;;;;39.63;28.17;;;;;;;-144.47;100.00;61586.06;5059659;28;19923;-80
2024/01/22 02:33:22;;;;;;;42.50;28.50;;;;;;;-144.47;100.00;61586.06;5056892;28;20064;-80
2024/01/22 02:36:08;;;;;;;36.78;28.23;;;;;;;-144.47;100.00;61586.06;5050014;28;20021;-80
2024/01/22 02:38:35;;;;;;;37.20;27.58;;;;;;;-144.47;100.00;61586.06;5043467;28;20036;-80
2024/01/22 02:41:06;;;;;;;42.05;29.58;;;;;;;-144.47;100.00;61586.06;5063109;28;20047;-79
2024/01/22 02:43:31;;;;;;;40.67;29.92;;;;;;;-144.47;100.00;61586.06;5051924;28;20020;-80
2024/01/22 02:46:02;;;;;;;41.72;28.85;;;;;;;-144.47;100.00;61586.06;5051457;28;20037;-80
2024/01/22 02:48:33;;;;;;;43.22;28.65;;;;;;;-144.47;100.00;61586.06;5060153;28;20044;-80
2024/01/22 02:51:03;;;;;;;;;;;;;;;-144.47;100.00;61586.06;5055677;28;20018;-80
2024/01/22 02:53:28;;;;;;;40.55;29.42;;;;;;;-144.47;100.00;61586.06;5050771;28;19917;-80
2024/01/22 02:55:54;;;;;;;39.33;28.20;;;;;;;-144.47;100.00;61586.06;5067217;28;20080;-79
2024/01/22 02:58:24;;;;;;;40.42;29.20;;;;;;;-144.47;100.00;61586.06;5057414;28;20046;-80
2024/01/22 03:00:50;;;;;;;40.08;28.95;;;;;;;-144.47;100.00;61586.06;5029511;28;20026;-79
2024/01/22 03:03:18;;;;;;;43.95;28.15;;;;;;;-144.47;100.00;61586.06;5042406;28;20040;-78
2024/01/22 03:05:48;;;;;;;39.05;27.60;;;;;;;-144.47;100.00;61586.06;5017277;28;20045;-80
2024/01/22 03:08:14;;;;;;;39.53;28.65;;;;;;;-144.47;100.00;61586.06;5051255;28;20044;-80
2024/01/22 03:10:45;;;;;;;40.15;29.08;;;;;;;-144.47;100.00;61586.06;5055016;28;20056;-80
2024/01/22 03:13:11;;;;;;;43.63;28.75;;;;;;;-144.47;100.00;61586.06;5039533;28;20068;-81
2024/01/22 03:15:48;;;;;;;37.75;27.58;;;;;;;-144.47;100.00;61586.06;5037322;28;20026;-81
2024/01/22 03:18:13;;;;;;;41.63;28.15;;;;;;;-144.47;100.00;61586.06;5050101;28;20060;-82
2024/01/22 03:20:40;;;;;;;41.30;28.15;;;;;;;-144.47;100.00;61586.06;5059140;28;20009;-81
2024/01/22 03:23:06;;;;;;;39.50;27.58;;;;;;;-144.47;100.00;61586.06;5059791;28;20029;-82
2024/01/22 03:26:00;;;;;;;40.25;26.70;;;;;;;-144.47;100.00;61586.06;5052155;28;20056;-80
2024/01/22 03:28:26;;;;;;;37.75;28.60;;;;;;;-144.47;100.00;61586.06;5053588;28;20029;-81
2024/01/22 03:31:03;;;;;;;42.97;28.88;;;;;;;-144.47;100.00;61586.06;5055230;28;20041;-81
2024/01/22 03:33:29;;;;;;;40.25;29.08;;;;;;;-144.47;100.00;61586.06;5070092;28;20037;-81
2024/01/22 03:35:57;;;;;;;40.92;29.17;;;;;;;-144.47;100.00;61586.06;5045212;28;20022;-81
2024/01/22 03:38:23;;;;;;;38.92;28.90;;;;;;;-144.47;100.00;61586.06;5058742;28;20034;-82
2024/01/22 03:40:49;;;;;;;40.90;28.70;;;;;;;-144.47;100.00;61586.06;5052795;28;20041;-81
2024/01/22 03:43:20;;;;;;;40.35;28.90;;;;;;;-144.47;100.00;61586.06;5052508;28;20041;-82
2024/01/22 03:45:45;;;;;;;44.42;32.03;;;;;;;-144.47;100.00;61586.06;5051864;28;20057;-80
2024/01/22 03:48:15;;;;;;;42.50;30.80;;;;;;;-144.47;100.00;61586.06;5046757;28;20044;-80
2024/01/22 03:50:47;;;;;;;43.58;32.03;;;;;;;-144.47;100.00;61586.06;5015490;28;20042;-81
2024/01/22 03:53:12;;;;;;;43.10;30.13;;;;;;;-144.47;100.00;61586.06;5046682;28;20087;-81
2024/01/22 03:55:52;;;;;;;44.95;31.65;;;;;;;-144.47;100.00;61586.06;5055994;28;20076;-80
2024/01/22 03:58:24;;;;;;;44.92;31.83;;;;;;;-144.47;100.00;61586.06;5054070;28;20035;-83
2024/01/22 04:01:18;;;;;;;42.45;31.15;;;;;;;-144.47;100.00;61586.06;5055858;28;20034;-82
2024/01/22 04:03:43;;;;;;;45.40;31.20;;;;;;;-144.47;100.00;61586.06;5046781;28;20057;-82
2024/01/22 04:06:15;;;;;;;43.80;32.72;;;;;;;-144.47;100.00;61586.06;5056225;28;20033;-82
2024/01/22 04:08:40;;;;;;;46.30;32.50;;;;;;;-144.47;100.00;61586.06;5039992;28;20046;-83
2024/01/22 04:11:11;;;;;;;46.42;32.38;;;;;;;-144.47;100.00;61586.06;5055178;28;20033;-82
2024/01/22 04:13:43;;;;;;;46.50;33.08;;;;;;;-144.47;100.00;61586.06;5038543;28;20439;-81
2024/01/22 04:16:14;;;;;;;46.33;32.78;;;;;;;-144.47;100.00;61586.06;5049578;28;20032;-82
2024/01/22 04:18:46;;;;;;;51.65;32.75;;;;;;;-144.47;100.00;61586.06;5048712;28;20025;-83
2024/01/22 04:21:17;;;;;;;51.88;35.28;;;;;;;-144.47;100.00;61586.06;5042814;28;20033;-82
2024/01/22 04:23:43;;;;;;;44.42;32.08;;;;;;;-144.47;100.00;61586.06;5035489;28;20034;-82
2024/01/22 04:26:11;;;;;;;47.95;34.35;;;;;;;-144.47;100.00;61586.06;5048523;28;20025;-82
2024/01/22 04:28:37;;;;;;;61.28;35.10;;;;;;;-144.47;100.00;61586.06;5051070;28;20048;-82
2024/01/22 04:31:15;;;;;;;50.85;32.30;;;;;;;-144.47;100.00;61586.06;5034723;28;20025;-82
2024/01/22 04:33:47;;;;;;;48.67;33.45;;;;;;;-144.47;100.00;61586.06;5039011;28;20034;-83
2024/01/22 04:36:12;;;;;;;54.08;33.72;;;;;;;-144.47;100.00;61586.06;5029007;28;20089;-83
2024/01/22 04:38:43;;;;;;;48.03;33.83;;;;;;;-144.47;100.00;61586.06;5047449;28;20030;-83
2024/01/22 04:41:08;;;;;;;;;;;;;;;-144.47;100.00;61586.06;5046826;28;20072;-83
2024/01/22 04:43:40;;;;;;;47.58;35.33;;;;;;;-144.47;100.00;61586.06;5045597;28;19917;-82
2024/01/22 04:46:12;;;;;;;46.03;33.17;;;;;;;-144.47;100.00;61586.06;5045091;28;20037;-82
2024/01/22 04:48:47;;;;;;;47.28;33.67;;;;;;;-144.47;100.00;61586.06;5049111;28;20068;-83
2024/01/22 04:51:17;;;;;;;46.00;33.33;;;;;;;-144.47;100.00;61586.06;5021789;28;20110;-83
2024/01/22 04:54:04;;;;;;;49.40;33.78;;;;;;;-144.47;100.00;61586.06;5049684;28;20029;-83
2024/01/22 04:56:37;;;;;;;44.75;32.60;;;;;;;-144.47;100.00;61586.06;5046916;28;20049;-82
2024/01/22 04:59:08;;;;;;;46.42;32.03;;;;;;;-144.47;100.00;61586.06;5037296;28;20041;-83
2024/01/22 05:01:37;;;;;;;45.85;31.73;;;;;;;-144.47;100.00;61586.06;5042564;28;20516;-83
2024/01/22 05:04:08;;;;;;;47.33;31.48;;;;;;;-144.47;100.00;61586.06;5063364;28;20021;-81
2024/01/22 05:06:33;;;;;;;43.55;30.40;;;;;;;-144.47;100.00;61586.06;5059992;28;20035;-83
2024/01/22 05:09:04;;;;;;;44.63;30.23;;;;;;;-144.47;100.00;61586.06;5052677;28;20026;-81
2024/01/22 05:11:30;;;;;;;39.10;27.40;;;;;;;-144.47;100.00;61586.06;5049628;28;20025;-82
2024/01/22 05:14:01;;;;;;;39.25;29.20;;;;;;;-144.47;100.00;61586.06;5065125;28;20045;-81
2024/01/22 05:16:28;;;;;;;38.75;27.63;;;;;;;-144.47;100.00;61586.06;5050340;28;20040;-83
2024/01/22 05:18:56;;;;;;;37.58;27.15;;;;;;;-144.47;100.00;61586.06;5019334;28;20021;-80
2024/01/22 05:21:22;;;;;;;36.05;27.58;;;;;;;-144.47;100.00;61586.06;5064808;28;20044;-81
2024/01/22 05:24:09;;;;;;;41.88;28.60;;;;;;;-144.47;100.00;61586.06;5061479;28;20040;-81
2024/01/22 05:26:40;;;;;;;39.25;28.67;;;;;;;-144.47;100.00;61586.06;5064099;28;20377;-81
2024/01/22 05:29:06;;;;;;;38.45;27.63;;;;;;;-144.47;100.00;61586.06;5053737;28;20091;-81
2024/01/22 05:32:02;;;;;;;39.28;27.77;;;;;;;-144.47;100.00;61586.06;5059895;28;20048;-82
2024/01/22 05:34:56;;;;;;;43.08;28.95;;;;;;;-144.47;100.00;61586.06;5063539;28;20103;-83
2024/01/22 05:37:21;;;;;;;36.65;27.67;;;;;;;-144.47;100.00;61586.06;5066802;28;20049;-81
2024/01/22 05:40:09;;;;;;;38.38;27.73;;;;;;;-144.47;100.00;61586.06;5063738;28;20013;-81
2024/01/22 05:42:56;;;;;;;39.78;28.33;;;;;;;-144.47;100.00;61586.06;5035476;28;20029;-82
2024/01/22 05:45:22;;;;;;;40.15;27.60;;;;;;;-144.47;100.00;61586.06;5048617;28;20065;-80
2024/01/22 05:47:53;;;;;;;37.60;27.45;;;;;;;-144.47;100.00;61586.06;5064945;28;20032;-81
2024/01/22 05:50:18;;;;;;;36.67;27.33;;;;;;;-144.47;100.00;61586.06;5055406;28;20029;-82
2024/01/22 05:53:05;;;;;;;37.75;27.15;;;;;;;-144.47;100.00;61586.06;5054676;28;20069;-83
2024/01/22 05:55:36;;;;;;;36.45;27.60;;;;;;;-144.47;100.00;61586.06;5052122;28;20030;-83
2024/01/22 05:58:05;;;;;;;41.28;27.95;;;;;;;-144.47;100.00;61586.06;5045044;28;20049;-83
2024/01/22 06:00:37;;;;;;;37.17;26.92;;;;;;;-144.47;100.00;61586.06;5032116;28;20093;-81
2024/01/22 06:03:09;;;;;;;39.63;26.35;;;;;;;-144.47;100.00;61586.06;5049535;28;20034;-78
2024/01/22 06:05:36;;;;;;;40.55;28.45;;;;;;;-144.47;100.00;61586.06;5031042;28;20093;-81
2024/01/22 06:08:06;;;;;;;38.20;26.45;;;;;;;-144.47;100.00;61586.06;5033266;28;20056;-79
2024/01/22 06:10:38;;;;;;;38.83;27.98;;;;;;;-144.47;100.00;61586.06;5026534;28;20030;-80
2024/01/22 06:13:11;;;;;;;40.25;27.02;;;;;;;-144.47;100.00;61586.06;5016340;28;20045;-78
2024/01/22 06:15:59;;;;;;;40.55;27.55;;;;;;;-144.47;100.00;61586.06;5023388;28;20026;-80
2024/01/22 06:18:41;;;;;;;37.85;27.95;;;;;;;-144.47;100.00;61586.06;5027425;28;20006;-81
2024/01/22 06:21:13;;;;;;;39.42;28.60;;;;;;;-144.47;100.00;61586.06;5036177;28;20083;-80
2024/01/22 06:24:02;;;;;;;37.50;27.33;;;;;;;-144.47;100.00;61586.06;5042786;28;20072;-81
2024/01/22 06:26:29;;;;;;;39.65;28.30;;;;;;;-144.47;100.00;61586.06;5032949;28;20034;-80
2024/01/22 06:28:57;;;;;;;40.60;29.80;;;;;;;-144.47;100.00;61586.06;5015414;28;20509;-77
2024/01/22 06:31:23;;;;;;;40.17;29.70;;;;;;;-144.47;100.00;61586.06;5032095;28;20041;-79
2024/01/22 06:33:55;;;;;;;40.13;28.65;;;;;;;-144.47;100.00;61586.06;5031941;28;20022;-79
2024/01/22 06:36:28;;;;;;;44.38;29.50;;;;;;;-144.47;100.00;61586.06;5048412;28;20045;-78
2024/01/22 06:39:22;;;;;;;42.63;30.95;;;;;;;-144.47;100.00;61586.06;5029707;28;21480;-79
2024/01/22 06:41:47;;;;;;;43.88;30.25;;;;;;;-144.47;100.00;61586.06;5028277;28;20033;-79
2024/01/22 06:44:19;;;;;;;45.03;30.80;;;;;;;-144.47;100.00;61586.06;5013830;28;20038;-79
2024/01/22 06:46:49;;;;;;;45.38;30.23;;;;;;;-144.47;100.00;61586.06;5037794;28;20033;-79
2024/01/22 06:49:15;;;;;;;45.38;31.73;;;;;;;-144.47;100.00;61586.06;5049971;28;20037;-80
2024/01/22 06:51:40;;;;;;;41.78;30.52;;;;;;;-144.47;100.00;61586.06;5039818;28;20022;-78
2024/01/22 06:54:08;;;;;;;48.95;32.00;;;;;;;-144.47;100.00;61586.06;5032995;28;20026;-78
2024/01/22 06:56:33;;;;;;;44.65;31.33;;;;;;;-144.47;100.00;61586.06;5030784;28;20536;-79
2024/01/22 06:59:01;;;;;;;51.22;30.95;;;;;;;-144.47;100.00;61586.06;5045779;28;20040;-79
2024/01/22 07:01:27;;;;;;;48.55;31.27;;;;;;;-144.47;100.00;61586.06;5038009;28;20538;-78
2024/01/22 07:03:57;;;;;;;45.00;30.95;;;;;;;-144.47;100.00;61586.06;5051861;28;20061;-80
2024/01/22 07:06:23;;;;;;;47.67;33.20;;;;;;;-144.47;100.00;61586.06;5046926;28;20056;-78
2024/01/22 07:09:02;;;;;;;47.65;32.05;;;;;;;-144.47;100.00;61586.06;5047707;28;20034;-79
2024/01/22 07:11:33;;;;;;;47.30;32.17;;;;;;;-144.47;100.00;61586.06;5032151;28;20066;-80
2024/01/22 07:13:59;;;;;;;42.22;31.27;;;;;;;-144.47;100.00;61586.06;5051400;28;20037;-80
2024/01/22 07:16:29;;;;;;;44.17;31.33;;;;;;;-144.47;100.00;61586.06;5056782;28;20025;-79
2024/01/22 07:18:54;;;;;;;46.90;31.58;;;;;;;-144.47;100.00;61586.06;5039689;28;20045;-79
2024/01/22 07:21:26;;;;;;;43.90;30.92;;;;;;;-144.47;100.00;61586.06;5050021;28;20014;-79
2024/01/22 07:23:57;;;;;;;50.67;31.88;;;;;;;-144.47;100.00;61586.06;5048212;28;20025;-80
2024/01/22 07:26:23;;;;;;;47.03;31.95;;;;;;;-144.47;100.00;61586.06;5047078;28;20021;-78
2024/01/22 07:28:53;;;;;;;48.63;34.97;;;;;;;-144.47;100.00;61586.06;5046720;28;20021;-79
2024/01/22 07:31:19;;;;;;;53.88;35.90;;;;;;;-144.47;100.00;61586.06;5053287;28;20039;-78
2024/01/22 07:33:49;;;;;;;49.13;34.50;;;;;;;-144.47;100.00;61586.06;5057022;28;20064;-79
2024/01/22 07:36:16;;;;;;;48.13;34.33;;;;;;;-144.47;100.00;61586.06;5047036;28;20024;-78
2024/01/22 07:38:47;;;;;;;44.55;33.15;;;;;;;-144.47;100.00;61586.06;5046850;28;20030;-79
2024/01/22 07:41:18;;;;;;;44.00;32.25;;;;;;;-144.47;100.00;61586.06;5031244;28;20818;-79
2024/01/22 07:43:44;;;;;;;46.55;33.10;;;;;;;-144.47;100.00;61586.06;5057088;28;20038;-79
2024/01/22 07:46:14;;;;;;;45.22;32.58;;;;;;;-144.47;100.00;61586.06;5033945;28;20072;-79
2024/01/22 07:49:01;;;;;;;46.45;33.20;;;;;;;-144.47;100.00;61586.06;5046031;28;20088;-80
2024/01/22 07:51:27;;;;;;;44.20;33.03;;;;;;;-144.47;100.00;61586.06;5039522;28;20029;-79
2024/01/22 07:54:06;;;;;;;45.42;32.10;;;;;;;-144.47;100.00;61586.06;5048527;28;20381;-78
2024/01/22 07:56:39;;;;;;;46.58;34.63;;;;;;;-144.47;100.00;61586.06;5053299;28;20040;-80
2024/01/22 07:59:10;;;;;;;47.55;32.17;;;;;;;-144.47;100.00;61586.06;5043986;28;20108;-79
2024/01/22 08:01:35;;;;;;;42.80;31.67;;;;;;;-144.47;100.00;61586.06;5054123;28;20093;-80
2024/01/22 08:04:06;;;;;;;43.38;32.10;;;;;;;-144.47;100.00;61586.06;5037927;28;20061;-80
2024/01/22 08:06:36;;;;;;;47.47;31.27;;;;;;;-144.47;100.00;61586.06;5062174;28;20077;-78
2024/01/22 08:09:03;;;;;;;43.50;29.88;;;;;;;-144.47;100.00;61586.06;5040552;28;20037;-79
2024/01/22 08:11:33;;;;;;;43.08;29.35;;;;;;;-144.47;100.00;61586.06;5050461;28;20037;-78
2024/01/22 08:14:06;;;;;;;45.47;30.77;;;;;;;-144.47;100.00;61586.06;5057720;28;20080;-79
2024/01/22 08:16:31;;;;;;;41.78;31.45;;;;;;;-144.47;100.00;61586.06;5058026;28;20041;-79
2024/01/22 08:19:01;;;;;;;40.13;29.80;;;;;;;-144.47;100.00;61586.06;5044627;28;20056;-80
2024/01/22 08:21:32;;;;;;;38.00;27.80;;;;;;;-144.47;100.00;61586.06;5049546;28;20033;-78
2024/01/22 08:24:17;;;;;;;37.28;27.90;;;;;;;-144.47;100.00;61586.06;5058840;28;20029;-79
2024/01/22 08:26:44;;;;;;;40.40;27.77;;;;;;;-144.47;100.00;61586.06;5031886;28;20424;-79
2024/01/22 08:29:09;;;;;;;38.55;28.48;;;;;;;-144.47;100.00;61586.06;5060143;28;20085;-78
2024/01/22 08:31:49;;;;;;;44.80;29.63;;;;;;;-144.47;100.00;61586.06;5045925;28;20039;-80
2024/01/22 08:34:20;;;;;;;39.85;28.58;;;;;;;-144.47;100.00;61586.06;5017236;28;20489;-80
2024/01/22 08:36:53;;;;;;;37.92;27.02;;;;;;;-144.47;100.00;61586.06;5053883;28;20025;-79
2024/01/22 08:39:24;;;;;;;37.08;26.38;;;;;;;-144.47;100.00;61586.06;5058572;28;20037;-80
2024/01/22 08:41:56;;;;;;;34.50;25.88;;;;;;;-144.47;100.00;61586.06;5049214;28;20030;-80
2024/01/22 08:44:21;;;;;;;41.00;26.52;;;;;;;-144.47;100.00;61586.06;5045656;28;20029;-80
2024/01/22 08:46:52;;;;;;;39.97;26.52;;;;;;;-144.47;100.00;61586.06;5047079;28;20026;-79
2024/01/22 08:49:17;;;;;;;38.78;26.40;;;;;;;-144.47;100.00;61586.06;5064137;28;20075;-79
2024/01/22 08:51:48;;;;;;;39.45;26.73;;;;;;;-144.47;100.00;61586.06;5058447;28;20041;-80
2024/01/22 08:54:13;;;;;;;39.10;26.02;;;;;;;-144.47;100.00;61586.06;5062798;28;20032;-80
2024/01/22 08:56:45;;;;;;;34.80;25.08;;;;;;;-144.47;100.00;61586.06;5052066;28;20037;-79
2024/01/22 08:59:15;;;;;;;36.60;25.40;;;;;;;-144.47;100.00;61586.06;5057827;28;20037;-80
2024/01/22 09:01:41;;;;;;;36.55;25.67;;;;;;;-144.47;100.00;61586.06;5014919;28;20014;-80
2024/01/22 09:04:16;;;;;;;39.35;25.15;;;;;;;-144.47;100.00;61586.06;5048566;28;20101;-79
2024/01/22 09:06:51;;;;;;;38.67;25.63;;;;;;;-144.47;100.00;61586.06;5044181;28;20086;-80
2024/01/22 09:09:20;;;;;;;34.95;25.50;;;;;;;-144.47;100.00;61586.06;5047797;28;20045;-80
2024/01/22 09:11:57;;;;;;;35.65;25.17;;;;;;;-144.47;100.00;61586.06;5030687;28;20645;-79
2024/01/22 09:14:26;;;;;;;36.60;25.58;;;;;;;-144.47;100.00;61586.06;5031416;28;20025;-80
2024/01/22 09:16:58;;;;;;;35.47;24.92;;;;;;;-144.47;100.00;61586.06;5050249;28;20089;-78
2024/01/22 09:19:29;;;;;;;35.88;26.38;;;;;;;-144.47;100.00;61586.06;5047680;28;20013;-80
2024/01/22 09:21:57;;;;;;;33.10;25.15;;;;;;;-144.47;100.00;61586.06;5030314;28;20104;-79
2024/01/22 09:24:30;;;;;;;42.03;27.27;;;;;;;-144.47;100.00;61586.06;5046712;28;20021;-78
2024/01/22 09:26:58;;;;;;;40.55;26.30;;;;;;;-144.47;100.00;61586.06;5030605;28;20057;-79
2024/01/22 09:29:30;;;;;;;43.28;28.17;;;;;;;-144.47;100.00;61586.06;5047368;28;20052;-78
2024/01/22 09:31:55;;;;;;;39.17;28.27;;;;;;;-144.47;100.00;61586.06;5054459;28;20045;-77
2024/01/22 09:34:21;;;;;;;39.47;27.20;;;;;;;-144.47;100.00;61586.06;5053799;28;20013;-80
2024/01/22 09:37:07;;;;;;;39.42;27.55;;;;;;;-144.47;100.00;61586.06;5047663;28;20013;-79
2024/01/22 09:39:33;;;;;;;43.17;27.35;;;;;;;-144.47;100.00;61586.06;5036094;28;20033;-79
2024/01/22 09:42:05;;;;;;;38.67;27.25;;;;;;;-144.47;100.00;61586.06;5047341;28;20044;-78
2024/01/22 09:44:36;;;;;;;41.22;27.23;;;;;;;-144.47;100.00;61586.06;5047397;28;20033;-77
2024/01/22 09:47:07;;;;;;;41.10;25.30;;;;;;;-144.47;100.00;61586.06;5029658;28;20037;-79
2024/01/22 09:49:32;;;;;;;;;;;;;;;-144.47;100.00;61586.06;5043428;28;20038;-79
2024/01/22 09:51:58;;;;;;;36.50;26.25;;;;;;;-144.47;100.00;61586.06;5043733;28;19924;-79
2024/01/22 09:54:35;;;;;;;36.55;25.15;;;;;;;-144.47;100.00;61586.06;5044498;28;20037;-79
2024/01/22 09:57:07;;;;;;;33.67;23.90;;;;;;;-144.47;100.00;61586.06;5048155;28;20029;-79
2024/01/22 10:00:02;;;;;;;32.97;23.73;;;;;;;-144.47;100.00;61586.06;5034997;28;20027;-77
2024/01/22 10:02:40;;;;;;;35.60;24.50;;;;;;;-144.47;100.00;61586.06;5025131;28;20034;-77
2024/01/22 10:05:07;;;;;;;31.40;23.50;;;;;;;-144.47;100.00;61586.06;5028048;28;20041;-78
2024/01/22 10:07:38;;;;;;;32.53;23.40;;;;;;;-144.47;100.00;61586.06;5051398;28;20017;-77
2024/01/22 10:10:04;;;;;;;38.55;24.85;;;;;;;-144.47;100.00;61586.06;5036231;28;20088;-78
2024/01/22 10:12:31;;;;;;;33.30;23.92;;;;;;;-144.47;100.00;61586.06;5047540;28;20026;-78
2024/01/22 10:15:14;;;;;;;34.13;23.20;;;;;;;-144.47;100.00;61586.06;5021446;28;20093;-78
2024/01/22 10:18:09;;;;;;;31.05;22.60;;;;;;;-144.47;100.00;61586.06;5017171;28;20045;-78
2024/01/22 10:20:50;;;;;;;33.92;23.90;;;;;;;-144.47;100.00;61586.06;5050005;28;20017;-78
2024/01/22 10:23:20;;;;;;;31.42;21.98;;;;;;;-144.47;100.00;61586.06;5043673;28;20033;-78
2024/01/22 10:25:46;;;;;;;30.38;22.00;;;;;;;-144.47;100.00;61586.06;5043721;28;20077;-77
2024/01/22 10:28:40;;;;;;;34.20;23.88;;;;;;;-144.47;100.00;61586.06;5040151;28;20034;-81
2024/01/22 10:31:08;;;;;;;32.28;23.77;;;;;;;-144.47;100.00;61586.06;5062535;22;20057;-78
2024/01/22 10:33:34;;;;;;;32.75;24.05;;;;;;;-144.47;100.00;61586.06;5021700;28;20025;-78
2024/01/22 10:36:18;;;;;;;41.55;27.10;;;;;;;-144.47;100.00;61586.06;5027140;28;20044;-77
2024/01/22 10:38:47;;;;;;;44.38;28.83;;;;;;;-144.47;100.00;61586.06;5026889;28;20040;-78
2024/01/22 10:41:16;;;;;;;50.95;35.20;;;;;;;-144.47;100.00;61586.06;5025330;28;20053;-79
2024/01/22 10:43:43;;;;;;;53.47;34.35;;;;;;;-144.47;100.00;61586.06;5025975;28;20041;-78
2024/01/22 10:46:10;;;;;;;45.92;30.27;;;;;;;-144.47;100.00;61586.06;5001879;28;20510;-77
2024/01/22 10:48:38;;;;;;;30.38;20.23;;;;;;;-144.47;100.00;61586.06;5020406;28;20049;-77
2024/01/22 10:51:07;;;;;;;31.52;20.70;;;;;;;-144.47;100.00;61586.06;5027121;28;20048;-78
2024/01/22 10:53:33;;;;;;;27.30;18.25;;;;;;;-144.47;100.00;61586.06;5024386;28;20083;-80
2024/01/22 10:56:03;;;;;;;21.70;15.52;;;;;;;-144.47;100.00;61586.06;5024378;28;20037;-77
2024/01/22 10:58:44;;;;;;;23.52;15.50;;;;;;;-144.47;100.00;61586.06;5025338;28;20034;-78
2024/01/22 11:01:13;;;;;;;;;;;;;;;-144.47;100.00;61586.06;5016707;28;20065;-77
2024/01/22 11:03:44;;;;;;;22.45;17.00;;;;;;;-144.47;100.00;61586.06;5022169;28;19925;-78
2024/01/22 11:06:14;;;;;;;21.13;16.40;;;;;;;-144.47;100.00;61586.06;5030985;28;20029;-78
2024/01/22 11:08:42;;;;;;;19.52;14.98;;;;;;;-144.47;100.00;61586.06;5027907;28;20493;-80
2024/01/22 11:11:12;;;;;;;26.40;17.17;;;;;;;-144.47;100.00;61586.06;5011967;28;20040;-77
2024/01/22 11:13:38;;;;;;;24.63;16.00;;;;;;;-144.47;100.00;61586.06;5024180;28;20662;-76